WXM80 ListenWXM80 Stop

You find our weather info also at:

UK Metoffice

WeatherCloud

Weather Underground

Northeastern Weather Network

AWEKAS

Citizen Weather Observer Program (CWOP)

HAMweather, WeatherForYou, PWS Weather


Weather Underground History page Text

Daily Summary for July 12, 2017 Units:  Both    English   Metric
« Previous Day
Next Day »
Daily Weekly Monthly Yearly Custom
  High: Low: Average:
Temperature: 92.7 °F /  33.7 °C 72.3 °F /  22.4 °C 81.1 °F /  27.3 °C
Dew Point: 79.0 °F /  26.1 °C 71.1 °F /  21.7 °C 73.9 °F /  23.3 °C
Humidity: 98 % 54 % 81 %
Wind Speed: 7.8 mph /  12.6 km/h - 1.6 mph /  2.6 km/h
Wind Gust: 15.0 mph /  24.1 km/h - -
Wind:- - WSW
Pressure: 29.96 in /  1014.4 hPa 29.86 in /  1011.1 hPa -
Precipitation: 0.01 in /  0.25 mm    
Historical Graphs
 
 
Tabular Data for July 12, 2017
Time Temperature Dew Point Pressure Wind Wind Speed Wind Gust Humidity Rainfall Rate (Hourly)
00:04 73.6 °F /  23.1 °C 71.8 °F /  22.1 °C 29.91 in /  1012.8 hPa Calm     94 % 0.00 in /  0 mm
00:09 73.6 °F /  23.1 °C 71.8 °F /  22.1 °C 29.91 in /  1012.8 hPa Calm     94 % 0.00 in /  0 mm
00:14 73.5 °F /  23.1 °C 71.7 °F /  22.1 °C 29.91 in /  1012.8 hPa Calm     94 % 0.00 in /  0 mm
00:19 73.5 °F /  23.1 °C 71.7 °F /  22.1 °C 29.91 in /  1012.8 hPa Calm     94 % 0.00 in /  0 mm
00:24 73.5 °F /  23.1 °C 72.0 °F /  22.2 °C 29.91 in /  1012.8 hPa Calm     95 % 0.00 in /  0 mm
00:29 73.5 °F /  23.1 °C 72.0 °F /  22.2 °C 29.91 in /  1012.8 hPa Calm     95 % 0.00 in /  0 mm
00:34 73.5 °F /  23.1 °C 72.0 °F /  22.2 °C 29.91 in /  1012.8 hPa Calm     95 % 0.00 in /  0 mm
00:39 73.5 °F /  23.1 °C 72.0 °F /  22.2 °C 29.90 in /  1012.4 hPa Calm     95 % 0.00 in /  0 mm
00:44 73.4 °F /  23 °C 71.9 °F /  22.2 °C 29.90 in /  1012.4 hPa SW 0.1 mph /  0.2 km/h 2.3 mph /  3.7 km/h 95 % 0.00 in /  0 mm
00:49 73.4 °F /  23 °C 71.9 °F /  22.2 °C 29.90 in /  1012.4 hPa Calm   1.2 mph /  1.9 km/h 95 % 0.00 in /  0 mm
00:54 73.4 °F /  23 °C 71.9 °F /  22.2 °C 29.90 in /  1012.4 hPa Calm     95 % 0.00 in /  0 mm
00:59 73.3 °F /  22.9 °C 71.8 °F /  22.1 °C 29.90 in /  1012.4 hPa Calm   1.2 mph /  1.9 km/h 95 % 0.00 in /  0 mm
01:04 73.3 °F /  22.9 °C 71.8 °F /  22.1 °C 29.90 in /  1012.4 hPa Calm   1.0 mph /  1.6 km/h 95 % 0.00 in /  0 mm
01:09 73.2 °F /  22.9 °C 71.7 °F /  22.1 °C 29.90 in /  1012.4 hPa Calm   1.2 mph /  1.9 km/h 95 % 0.00 in /  0 mm
01:15 73.3 °F /  22.9 °C 71.8 °F /  22.1 °C 29.90 in /  1012.4 hPa Calm     95 % 0.00 in /  0 mm
01:20 73.3 °F /  22.9 °C 71.8 °F /  22.1 °C 29.91 in /  1012.8 hPa Calm   1.0 mph /  1.6 km/h 95 % 0.00 in /  0 mm
01:25 73.3 °F /  22.9 °C 71.8 °F /  22.1 °C 29.91 in /  1012.8 hPa Calm   1.2 mph /  1.9 km/h 95 % 0.00 in /  0 mm
01:30 73.3 °F /  22.9 °C 71.8 °F /  22.1 °C 29.91 in /  1012.8 hPa Calm   1.2 mph /  1.9 km/h 95 % 0.00 in /  0 mm
01:35 73.3 °F /  22.9 °C 71.8 °F /  22.1 °C 29.91 in /  1012.8 hPa Calm     95 % 0.00 in /  0 mm
01:40 73.3 °F /  22.9 °C 71.8 °F /  22.1 °C 29.91 in /  1012.8 hPa Calm     95 % 0.00 in /  0 mm
01:45 73.3 °F /  22.9 °C 72.1 °F /  22.3 °C 29.91 in /  1012.8 hPa Calm     96 % 0.00 in /  0 mm
01:50 73.3 °F /  22.9 °C 71.8 °F /  22.1 °C 29.91 in /  1012.8 hPa Calm     95 % 0.00 in /  0 mm
01:55 73.3 °F /  22.9 °C 72.1 °F /  22.3 °C 29.91 in /  1012.8 hPa Calm     96 % 0.00 in /  0 mm
02:00 73.3 °F /  22.9 °C 71.8 °F /  22.1 °C 29.91 in /  1012.8 hPa Calm     95 % 0.00 in /  0 mm
02:02 73.3 °F /  22.9 °C 71.8 °F /  22.1 °C 29.91 in /  1012.8 hPa Calm     95 % 0.00 in /  0 mm
02:07 73.2 °F /  22.9 °C 72.0 °F /  22.2 °C 29.91 in /  1012.8 hPa Calm     96 % 0.00 in /  0 mm
02:12 73.2 °F /  22.9 °C 72.0 °F /  22.2 °C 29.91 in /  1012.8 hPa Calm     96 % 0.00 in /  0 mm
02:17 73.2 °F /  22.9 °C 72.0 °F /  22.2 °C 29.91 in /  1012.8 hPa Calm     96 % 0.00 in /  0 mm
02:22 73.2 °F /  22.9 °C 72.0 °F /  22.2 °C 29.91 in /  1012.8 hPa Calm     96 % 0.00 in /  0 mm
02:27 73.2 °F /  22.9 °C 72.0 °F /  22.2 °C 29.91 in /  1012.8 hPa Calm     96 % 0.00 in /  0 mm
02:32 73.2 °F /  22.9 °C 72.0 °F /  22.2 °C 29.91 in /  1012.8 hPa Calm   1.2 mph /  1.9 km/h 96 % 0.00 in /  0 mm
02:37 73.3 °F /  22.9 °C 72.1 °F /  22.3 °C 29.91 in /  1012.8 hPa Calm     96 % 0.00 in /  0 mm
02:42 73.2 °F /  22.9 °C 72.0 °F /  22.2 °C 29.92 in /  1013.1 hPa Calm     96 % 0.00 in /  0 mm
02:47 73.3 °F /  22.9 °C 72.1 °F /  22.3 °C 29.92 in /  1013.1 hPa Calm     96 % 0.00 in /  0 mm
02:52 73.3 °F /  22.9 °C 72.1 °F /  22.3 °C 29.91 in /  1012.8 hPa Calm     96 % 0.00 in /  0 mm
02:57 73.3 °F /  22.9 °C 72.1 °F /  22.3 °C 29.92 in /  1013.1 hPa Calm     96 % 0.00 in /  0 mm
03:02 73.3 °F /  22.9 °C 72.1 °F /  22.3 °C 29.92 in /  1013.1 hPa Calm     96 % 0.00 in /  0 mm
03:07 73.2 °F /  22.9 °C 72.0 °F /  22.2 °C 29.91 in /  1012.8 hPa Calm     96 % 0.00 in /  0 mm
03:12 73.3 °F /  22.9 °C 72.1 °F /  22.3 °C 29.91 in /  1012.8 hPa Calm     96 % 0.00 in /  0 mm
03:17 73.2 °F /  22.9 °C 72.0 °F /  22.2 °C 29.91 in /  1012.8 hPa Calm     96 % 0.00 in /  0 mm
03:22 73.2 °F /  22.9 °C 72.0 °F /  22.2 °C 29.91 in /  1012.8 hPa Calm     96 % 0.00 in /  0 mm
03:28 73.2 °F /  22.9 °C 72.0 °F /  22.2 °C 29.91 in /  1012.8 hPa Calm     96 % 0.00 in /  0 mm
03:33 73.1 °F /  22.8 °C 71.9 °F /  22.2 °C 29.91 in /  1012.8 hPa Calm     96 % 0.00 in /  0 mm
03:38 73.0 °F /  22.8 °C 71.8 °F /  22.1 °C 29.91 in /  1012.8 hPa Calm     96 % 0.00 in /  0 mm
03:43 73.0 °F /  22.8 °C 71.8 °F /  22.1 °C 29.91 in /  1012.8 hPa Calm     96 % 0.00 in /  0 mm
03:48 72.9 °F /  22.7 °C 71.7 °F /  22.1 °C 29.91 in /  1012.8 hPa Calm     96 % 0.00 in /  0 mm
03:53 72.8 °F /  22.7 °C 71.3 °F /  21.8 °C 29.91 in /  1012.8 hPa Calm     95 % 0.00 in /  0 mm
03:58 72.7 °F /  22.6 °C 71.2 °F /  21.8 °C 29.91 in /  1012.8 hPa Calm     95 % 0.00 in /  0 mm
04:03 72.7 °F /  22.6 °C 71.2 °F /  21.8 °C 29.91 in /  1012.8 hPa Calm     95 % 0.00 in /  0 mm
04:08 72.6 °F /  22.6 °C 71.1 °F /  21.7 °C 29.92 in /  1013.1 hPa Calm     95 % 0.00 in /  0 mm
04:13 72.6 °F /  22.6 °C 71.1 °F /  21.7 °C 29.91 in /  1012.8 hPa Calm     95 % 0.00 in /  0 mm
04:18 72.6 °F /  22.6 °C 71.4 °F /  21.9 °C 29.92 in /  1013.1 hPa Calm     96 % 0.00 in /  0 mm
04:23 72.5 °F /  22.5 °C 71.3 °F /  21.8 °C 29.92 in /  1013.1 hPa Calm     96 % 0.00 in /  0 mm
04:28 72.5 °F /  22.5 °C 71.3 °F /  21.8 °C 29.91 in /  1012.8 hPa Calm     96 % 0.00 in /  0 mm
04:33 72.4 °F /  22.4 °C 71.2 °F /  21.8 °C 29.91 in /  1012.8 hPa Calm     96 % 0.00 in /  0 mm
04:38 72.4 °F /  22.4 °C 71.2 °F /  21.8 °C 29.91 in /  1012.8 hPa Calm     96 % 0.00 in /  0 mm
04:43 72.3 °F /  22.4 °C 71.1 °F /  21.7 °C 29.91 in /  1012.8 hPa Calm     96 % 0.00 in /  0 mm
04:48 72.4 °F /  22.4 °C 71.2 °F /  21.8 °C 29.91 in /  1012.8 hPa Calm     96 % 0.00 in /  0 mm
04:53 72.4 °F /  22.4 °C 71.2 °F /  21.8 °C 29.91 in /  1012.8 hPa Calm     96 % 0.00 in /  0 mm
04:58 72.4 °F /  22.4 °C 71.2 °F /  21.8 °C 29.91 in /  1012.8 hPa Calm     96 % 0.00 in /  0 mm
04:59 72.4 °F /  22.4 °C 71.2 °F /  21.8 °C 29.91 in /  1012.8 hPa Calm     96 % 0.00 in /  0 mm
05:04 72.4 °F /  22.4 °C 71.2 °F /  21.8 °C 29.91 in /  1012.8 hPa Calm     96 % 0.00 in /  0 mm
05:09 72.4 °F /  22.4 °C 71.2 °F /  21.8 °C 29.91 in /  1012.8 hPa Calm     96 % 0.00 in /  0 mm
05:14 72.4 °F /  22.4 °C 71.2 °F /  21.8 °C 29.91 in /  1012.8 hPa Calm     96 % 0.00 in /  0 mm
05:19 72.4 °F /  22.4 °C 71.2 °F /  21.8 °C 29.91 in /  1012.8 hPa SW 0.5 mph /  0.8 km/h 2.3 mph /  3.7 km/h 96 % 0.00 in /  0 mm
05:24 72.4 °F /  22.4 °C 71.2 °F /  21.8 °C 29.91 in /  1012.8 hPa Calm     96 % 0.00 in /  0 mm
05:29 72.5 °F /  22.5 °C 71.3 °F /  21.8 °C 29.91 in /  1012.8 hPa Calm     96 % 0.00 in /  0 mm
05:34 72.6 °F /  22.6 °C 71.4 °F /  21.9 °C 29.90 in /  1012.4 hPa Calm   1.2 mph /  1.9 km/h 96 % 0.00 in /  0 mm
05:39 72.9 °F /  22.7 °C 72.0 °F /  22.2 °C 29.90 in /  1012.4 hPa Calm     97 % 0.00 in /  0 mm
05:44 73.1 °F /  22.8 °C 72.2 °F /  22.3 °C 29.90 in /  1012.4 hPa Calm     97 % 0.00 in /  0 mm
05:49 73.2 °F /  22.9 °C 72.3 °F /  22.4 °C 29.89 in /  1012.1 hPa Calm     97 % 0.00 in /  0 mm
05:54 73.3 °F /  22.9 °C 72.4 °F /  22.4 °C 29.89 in /  1012.1 hPa Calm     97 % 0.00 in /  0 mm
05:59 73.3 °F /  22.9 °C 72.4 °F /  22.4 °C 29.89 in /  1012.1 hPa SW 0.2 mph /  0.3 km/h 1.2 mph /  1.9 km/h 97 % 0.00 in /  0 mm
06:04 73.3 °F /  22.9 °C 72.4 °F /  22.4 °C 29.89 in /  1012.1 hPa Calm     97 % 0.00 in /  0 mm
06:09 73.4 °F /  23 °C 72.5 °F /  22.5 °C 29.88 in /  1011.7 hPa Calm   1.2 mph /  1.9 km/h 97 % 0.00 in /  0 mm
06:15 73.4 °F /  23 °C 72.5 °F /  22.5 °C 29.89 in /  1012.1 hPa Calm     97 % 0.00 in /  0 mm
06:20 73.5 °F /  23.1 °C 72.6 °F /  22.6 °C 29.89 in /  1012.1 hPa Calm   1.2 mph /  1.9 km/h 97 % 0.00 in /  0 mm
06:25 73.5 °F /  23.1 °C 72.6 °F /  22.6 °C 29.90 in /  1012.4 hPa SW 0.2 mph /  0.3 km/h 1.2 mph /  1.9 km/h 97 % 0.00 in /  0 mm
06:30 73.5 °F /  23.1 °C 72.6 °F /  22.6 °C 29.90 in /  1012.4 hPa WSW 2.2 mph /  3.5 km/h 3.5 mph /  5.6 km/h 97 % 0.00 in /  0 mm
06:35 73.6 °F /  23.1 °C 72.7 °F /  22.6 °C 29.90 in /  1012.4 hPa West 1.8 mph /  2.9 km/h 3.5 mph /  5.6 km/h 97 % 0.00 in /  0 mm
06:40 73.6 °F /  23.1 °C 72.7 °F /  22.6 °C 29.90 in /  1012.4 hPa SW 2.3 mph /  3.7 km/h 5.8 mph /  9.3 km/h 97 % 0.00 in /  0 mm
06:45 73.7 °F /  23.2 °C 72.8 °F /  22.7 °C 29.90 in /  1012.4 hPa WSW 1.6 mph /  2.6 km/h 5.8 mph /  9.3 km/h 97 % 0.00 in /  0 mm
06:50 73.7 °F /  23.2 °C 72.8 °F /  22.7 °C 29.90 in /  1012.4 hPa WSW 2.2 mph /  3.5 km/h 3.0 mph /  4.8 km/h 97 % 0.00 in /  0 mm
06:53 73.7 °F /  23.2 °C 72.8 °F /  22.7 °C 29.90 in /  1012.4 hPa WSW 1.4 mph /  2.3 km/h 3.5 mph /  5.6 km/h 97 % 0.00 in /  0 mm
06:58 73.8 °F /  23.2 °C 72.9 °F /  22.7 °C 29.91 in /  1012.8 hPa SW 1.5 mph /  2.4 km/h 3.5 mph /  5.6 km/h 97 % 0.00 in /  0 mm
07:03 74.0 °F /  23.3 °C 73.1 °F /  22.8 °C 29.91 in /  1012.8 hPa South 0.9 mph /  1.4 km/h 3.5 mph /  5.6 km/h 97 % 0.00 in /  0 mm
07:08 74.2 °F /  23.4 °C 73.3 °F /  22.9 °C 29.91 in /  1012.8 hPa WSW 3.1 mph /  5 km/h 5.0 mph /  8 km/h 97 % 0.00 in /  0 mm
07:13 74.5 °F /  23.6 °C 73.9 °F /  23.3 °C 29.91 in /  1012.8 hPa SSW 2.4 mph /  3.9 km/h 5.8 mph /  9.3 km/h 98 % 0.00 in /  0 mm
07:18 74.7 °F /  23.7 °C 73.8 °F /  23.2 °C 29.91 in /  1012.8 hPa WSW 2.9 mph /  4.7 km/h 4.6 mph /  7.4 km/h 97 % 0.00 in /  0 mm
07:23 74.8 °F /  23.8 °C 73.9 °F /  23.3 °C 29.92 in /  1013.1 hPa West 3.0 mph /  4.8 km/h 5.8 mph /  9.3 km/h 97 % 0.00 in /  0 mm
07:28 74.8 °F /  23.8 °C 73.9 °F /  23.3 °C 29.92 in /  1013.1 hPa WSW 1.2 mph /  1.9 km/h 3.5 mph /  5.6 km/h 97 % 0.00 in /  0 mm
07:33 74.8 °F /  23.8 °C 73.9 °F /  23.3 °C 29.92 in /  1013.1 hPa West 2.1 mph /  3.4 km/h 3.5 mph /  5.6 km/h 97 % 0.00 in /  0 mm
07:38 74.8 °F /  23.8 °C 73.9 °F /  23.3 °C 29.93 in /  1013.4 hPa West 0.5 mph /  0.8 km/h 2.3 mph /  3.7 km/h 97 % 0.00 in /  0 mm
07:43 74.8 °F /  23.8 °C 73.9 °F /  23.3 °C 29.93 in /  1013.4 hPa West 0.2 mph /  0.3 km/h 1.2 mph /  1.9 km/h 97 % 0.00 in /  0 mm
07:48 74.9 °F /  23.8 °C 74.0 °F /  23.3 °C 29.93 in /  1013.4 hPa West 0.8 mph /  1.3 km/h 3.5 mph /  5.6 km/h 97 % 0.00 in /  0 mm
07:53 74.9 °F /  23.8 °C 74.0 °F /  23.3 °C 29.93 in /  1013.4 hPa WNW 0.2 mph /  0.3 km/h 3.5 mph /  5.6 km/h 97 % 0.00 in /  0 mm
07:56 74.9 °F /  23.8 °C 74.0 °F /  23.3 °C 29.93 in /  1013.4 hPa WNW 0.2 mph /  0.3 km/h 1.2 mph /  1.9 km/h 97 % 0.00 in /  0 mm
08:01 74.9 °F /  23.8 °C 74.0 °F /  23.3 °C 29.93 in /  1013.4 hPa WNW 0.6 mph /  1 km/h 3.5 mph /  5.6 km/h 97 % 0.00 in /  0 mm
08:06 74.9 °F /  23.8 °C 74.0 °F /  23.3 °C 29.92 in /  1013.1 hPa WNW 0.1 mph /  0.2 km/h 1.2 mph /  1.9 km/h 97 % 0.00 in /  0 mm
08:11 74.9 °F /  23.8 °C 74.0 °F /  23.3 °C 29.93 in /  1013.4 hPa Calm   1.2 mph /  1.9 km/h 97 % 0.00 in /  0 mm
08:16 74.9 °F /  23.8 °C 74.0 °F /  23.3 °C 29.93 in /  1013.4 hPa WNW 0.2 mph /  0.3 km/h 2.3 mph /  3.7 km/h 97 % 0.00 in /  0 mm
08:21 74.9 °F /  23.8 °C 74.0 °F /  23.3 °C 29.93 in /  1013.4 hPa Calm   1.2 mph /  1.9 km/h 97 % 0.00 in /  0 mm
08:26 75.0 °F /  23.9 °C 74.1 °F /  23.4 °C 29.93 in /  1013.4 hPa WNW 0.7 mph /  1.1 km/h 2.3 mph /  3.7 km/h 97 % 0.00 in /  0 mm
08:31 75.0 °F /  23.9 °C 74.1 °F /  23.4 °C 29.92 in /  1013.1 hPa WNW 0.4 mph /  0.6 km/h 1.2 mph /  1.9 km/h 97 % 0.00 in /  0 mm
08:36 75.1 °F /  23.9 °C 74.2 °F /  23.4 °C 29.92 in /  1013.1 hPa NW 0.2 mph /  0.3 km/h 1.2 mph /  1.9 km/h 97 % 0.00 in /  0 mm
08:41 75.3 °F /  24.1 °C 74.4 °F /  23.6 °C 29.92 in /  1013.1 hPa NW 0.3 mph /  0.5 km/h 2.0 mph /  3.2 km/h 97 % 0.00 in /  0 mm
08:46 75.5 °F /  24.2 °C 74.6 °F /  23.7 °C 29.92 in /  1013.1 hPa SW 1.9 mph /  3.1 km/h 4.6 mph /  7.4 km/h 97 % 0.00 in /  0 mm
08:51 75.6 °F /  24.2 °C 74.7 °F /  23.7 °C 29.92 in /  1013.1 hPa SW 1.1 mph /  1.8 km/h 3.5 mph /  5.6 km/h 97 % 0.00 in /  0 mm
08:57 75.7 °F /  24.3 °C 74.8 °F /  23.8 °C 29.93 in /  1013.4 hPa SW 0.3 mph /  0.5 km/h 2.3 mph /  3.7 km/h 97 % 0.00 in /  0 mm
09:02 75.8 °F /  24.3 °C 74.9 °F /  23.8 °C 29.92 in /  1013.1 hPa WSW 0.5 mph /  0.8 km/h 3.5 mph /  5.6 km/h 97 % 0.00 in /  0 mm
09:07 75.9 °F /  24.4 °C 75.0 °F /  23.9 °C 29.92 in /  1013.1 hPa SW 3.0 mph /  4.8 km/h 4.0 mph /  6.4 km/h 97 % 0.00 in /  0 mm
09:12 76.0 °F /  24.4 °C 75.1 °F /  23.9 °C 29.93 in /  1013.4 hPa SW 3.1 mph /  5 km/h 10.0 mph /  16.1 km/h 97 % 0.00 in /  0 mm
09:17 76.1 °F /  24.5 °C 75.2 °F /  24 °C 29.93 in /  1013.4 hPa WSW 3.9 mph /  6.3 km/h 8.1 mph /  13 km/h 97 % 0.00 in /  0 mm
09:22 76.2 °F /  24.6 °C 75.3 °F /  24.1 °C 29.93 in /  1013.4 hPa WSW 3.2 mph /  5.1 km/h 6.9 mph /  11.1 km/h 97 % 0.00 in /  0 mm
09:27 76.3 °F /  24.6 °C 75.4 °F /  24.1 °C 29.93 in /  1013.4 hPa WSW 3.3 mph /  5.3 km/h 5.8 mph /  9.3 km/h 97 % 0.00 in /  0 mm
09:32 76.6 °F /  24.8 °C 75.7 °F /  24.3 °C 29.92 in /  1013.1 hPa WSW 1.5 mph /  2.4 km/h 4.6 mph /  7.4 km/h 97 % 0.00 in /  0 mm
09:37 76.8 °F /  24.9 °C 75.6 °F /  24.2 °C 29.93 in /  1013.4 hPa SW 3.5 mph /  5.6 km/h 5.8 mph /  9.3 km/h 96 % 0.00 in /  0 mm
09:42 77.1 °F /  25.1 °C 75.9 °F /  24.4 °C 29.93 in /  1013.4 hPa SSW 2.4 mph /  3.9 km/h 6.9 mph /  11.1 km/h 96 % 0.00 in /  0 mm
09:43 77.1 °F /  25.1 °C 75.9 °F /  24.4 °C 29.93 in /  1013.4 hPa WSW 2.2 mph /  3.5 km/h 3.5 mph /  5.6 km/h 96 % 0.00 in /  0 mm
09:48 77.6 °F /  25.3 °C 76.4 °F /  24.7 °C 29.93 in /  1013.4 hPa SW 7.8 mph /  12.6 km/h 8.1 mph /  13 km/h 96 % 0.00 in /  0 mm
09:53 78.0 °F /  25.6 °C 75.8 °F /  24.3 °C 29.93 in /  1013.4 hPa SW 1.7 mph /  2.7 km/h 4.6 mph /  7.4 km/h 93 % 0.00 in /  0 mm
09:58 78.5 °F /  25.8 °C 76.0 °F /  24.4 °C 29.92 in /  1013.1 hPa SW 3.1 mph /  5 km/h 9.2 mph /  14.8 km/h 92 % 0.00 in /  0 mm
10:03 79.2 °F /  26.2 °C 76.3 °F /  24.6 °C 29.93 in /  1013.4 hPa WSW 1.2 mph /  1.9 km/h 5.8 mph /  9.3 km/h 91 % 0.00 in /  0 mm
10:08 79.8 °F /  26.6 °C 76.9 °F /  24.9 °C 29.93 in /  1013.4 hPa WNW 1.8 mph /  2.9 km/h 10.4 mph /  16.7 km/h 91 % 0.00 in /  0 mm
10:13 80.3 °F /  26.8 °C 76.4 °F /  24.7 °C 29.92 in /  1013.1 hPa SSW 5.7 mph /  9.2 km/h 11.5 mph /  18.5 km/h 88 % 0.00 in /  0 mm
10:18 80.8 °F /  27.1 °C 76.9 °F /  24.9 °C 29.92 in /  1013.1 hPa WSW 3.4 mph /  5.5 km/h 3.5 mph /  5.6 km/h 88 % 0.00 in /  0 mm
10:23 81.5 °F /  27.5 °C 77.3 °F /  25.2 °C 29.92 in /  1013.1 hPa WNW 0.4 mph /  0.6 km/h 3.5 mph /  5.6 km/h 87 % 0.00 in /  0 mm
10:28 82.2 °F /  27.9 °C 77.6 °F /  25.3 °C 29.92 in /  1013.1 hPa WNW 2.0 mph /  3.2 km/h 5.8 mph /  9.3 km/h 86 % 0.00 in /  0 mm
10:34 82.8 °F /  28.2 °C 76.7 °F /  24.8 °C 29.92 in /  1013.1 hPa SW 4.9 mph /  7.9 km/h 11.5 mph /  18.5 km/h 82 % 0.00 in /  0 mm
10:39 83.6 °F /  28.7 °C 78.2 °F /  25.7 °C 29.93 in /  1013.4 hPa WNW 1.8 mph /  2.9 km/h 3.5 mph /  5.6 km/h 84 % 0.00 in /  0 mm
10:44 84.2 °F /  29 °C 78.5 °F /  25.8 °C 29.93 in /  1013.4 hPa NNE 1.2 mph /  1.9 km/h 3.5 mph /  5.6 km/h 83 % 0.00 in /  0 mm
10:49 84.7 °F /  29.3 °C 77.1 °F /  25.1 °C 29.94 in /  1013.8 hPa West 1.9 mph /  3.1 km/h 5.0 mph /  8 km/h 78 % 0.00 in /  0 mm
10:54 85.5 °F /  29.7 °C 79.0 °F /  26.1 °C 29.93 in /  1013.4 hPa SW 2.2 mph /  3.5 km/h 4.0 mph /  6.4 km/h 81 % 0.00 in /  0 mm
10:59 86.1 °F /  30.1 °C 78.4 °F /  25.8 °C 29.94 in /  1013.8 hPa WSW 3.0 mph /  4.8 km/h 6.0 mph /  9.7 km/h 78 % 0.00 in /  0 mm
11:05 86.6 °F /  30.3 °C 78.1 °F /  25.6 °C 29.93 in /  1013.4 hPa SW 2.8 mph /  4.5 km/h 3.5 mph /  5.6 km/h 76 % 0.00 in /  0 mm
11:10 87.1 °F /  30.6 °C 77.8 °F /  25.4 °C 29.93 in /  1013.4 hPa NW 5.0 mph /  8 km/h 8.1 mph /  13 km/h 74 % 0.00 in /  0 mm
11:15 87.4 °F /  30.8 °C 76.8 °F /  24.9 °C 29.93 in /  1013.4 hPa SW 2.1 mph /  3.4 km/h 4.6 mph /  7.4 km/h 71 % 0.00 in /  0 mm
11:20 87.7 °F /  30.9 °C 76.7 °F /  24.8 °C 29.93 in /  1013.4 hPa SW 2.5 mph /  4 km/h 7.0 mph /  11.3 km/h 70 % 0.00 in /  0 mm
11:25 88.0 °F /  31.1 °C 76.1 °F /  24.5 °C 29.93 in /  1013.4 hPa WSW 5.1 mph /  8.2 km/h 8.1 mph /  13 km/h 68 % 0.00 in /  0 mm
11:30 88.3 °F /  31.3 °C 76.8 °F /  24.9 °C 29.93 in /  1013.4 hPa WNW 1.7 mph /  2.7 km/h 4.6 mph /  7.4 km/h 69 % 0.00 in /  0 mm
11:35 88.6 °F /  31.4 °C 78.0 °F /  25.6 °C 29.93 in /  1013.4 hPa SSW 1.0 mph /  1.6 km/h 3.5 mph /  5.6 km/h 71 % 0.00 in /  0 mm
11:40 89.0 °F /  31.7 °C 78.8 °F /  26 °C 29.93 in /  1013.4 hPa NW 0.6 mph /  1 km/h 6.0 mph /  9.7 km/h 72 % 0.00 in /  0 mm
11:45 89.4 °F /  31.9 °C 77.9 °F /  25.5 °C 29.93 in /  1013.4 hPa South 3.4 mph /  5.5 km/h 6.0 mph /  9.7 km/h 69 % 0.00 in /  0 mm
11:50 89.8 °F /  32.1 °C 77.8 °F /  25.4 °C 29.93 in /  1013.4 hPa WNW 2.0 mph /  3.2 km/h 8.1 mph /  13 km/h 68 % 0.00 in /  0 mm
11:55 90.1 °F /  32.3 °C 77.7 °F /  25.4 °C 29.93 in /  1013.4 hPa WSW 3.9 mph /  6.3 km/h 6.9 mph /  11.1 km/h 67 % 0.00 in /  0 mm
12:00 90.4 °F /  32.4 °C 78.4 °F /  25.8 °C 29.93 in /  1013.4 hPa West 2.6 mph /  4.2 km/h 3.5 mph /  5.6 km/h 68 % 0.00 in /  0 mm
12:05 90.7 °F /  32.6 °C 77.8 °F /  25.4 °C 29.93 in /  1013.4 hPa WSW 2.9 mph /  4.7 km/h 5.8 mph /  9.3 km/h 66 % 0.00 in /  0 mm
12:10 90.8 °F /  32.7 °C 76.5 °F /  24.7 °C 29.93 in /  1013.4 hPa SW 5.6 mph /  9 km/h 11.5 mph /  18.5 km/h 63 % 0.00 in /  0 mm
12:15 90.8 °F /  32.7 °C 76.5 °F /  24.7 °C 29.92 in /  1013.1 hPa West 3.0 mph /  4.8 km/h 7.0 mph /  11.3 km/h 63 % 0.00 in /  0 mm
12:21 90.9 °F /  32.7 °C 77.0 °F /  25 °C 29.92 in /  1013.1 hPa WNW 2.0 mph /  3.2 km/h 7.0 mph /  11.3 km/h 64 % 0.00 in /  0 mm
12:25 91.0 °F /  32.8 °C 77.1 °F /  25.1 °C 29.92 in /  1013.1 hPa WNW 2.0 mph /  3.2 km/h 5.0 mph /  8 km/h 64 % 0.00 in /  0 mm
12:31 91.2 °F /  32.9 °C 77.3 °F /  25.2 °C 29.91 in /  1012.8 hPa WSW 2.0 mph /  3.2 km/h 5.0 mph /  8 km/h 64 % 0.00 in /  0 mm
12:36 91.2 °F /  32.9 °C 75.9 °F /  24.4 °C 29.91 in /  1012.8 hPa SW 3.0 mph /  4.8 km/h 9.0 mph /  14.5 km/h 61 % 0.00 in /  0 mm
12:41 91.3 °F /  32.9 °C 76.9 °F /  24.9 °C 29.91 in /  1012.8 hPa SW 2.0 mph /  3.2 km/h 6.0 mph /  9.7 km/h 63 % 0.00 in /  0 mm
12:46 91.5 °F /  33.1 °C 77.6 °F /  25.3 °C 29.91 in /  1012.8 hPa SW 2.0 mph /  3.2 km/h 7.0 mph /  11.3 km/h 64 % 0.00 in /  0 mm
12:50 91.6 °F /  33.1 °C 77.7 °F /  25.4 °C 29.91 in /  1012.8 hPa SW 1.0 mph /  1.6 km/h 7.0 mph /  11.3 km/h 64 % 0.00 in /  0 mm
12:56 91.7 °F /  33.2 °C 76.8 °F /  24.9 °C 29.91 in /  1012.8 hPa WSW 5.0 mph /  8 km/h 8.0 mph /  12.9 km/h 62 % 0.00 in /  0 mm
13:01 91.7 °F /  33.2 °C 77.3 °F /  25.2 °C 29.91 in /  1012.8 hPa WSW 1.9 mph /  3.1 km/h 4.6 mph /  7.4 km/h 63 % 0.00 in /  0 mm
13:06 91.9 °F /  33.3 °C 78.0 °F /  25.6 °C 29.91 in /  1012.8 hPa West 1.2 mph /  1.9 km/h 5.8 mph /  9.3 km/h 64 % 0.00 in /  0 mm
13:11 91.9 °F /  33.3 °C 76.0 °F /  24.4 °C 29.91 in /  1012.8 hPa SW 5.8 mph /  9.3 km/h 10.4 mph /  16.7 km/h 60 % 0.00 in /  0 mm
13:16 92.0 °F /  33.3 °C 77.1 °F /  25.1 °C 29.91 in /  1012.8 hPa NW 0.9 mph /  1.4 km/h 3.5 mph /  5.6 km/h 62 % 0.00 in /  0 mm
13:21 92.2 °F /  33.4 °C 77.8 °F /  25.4 °C 29.90 in /  1012.4 hPa SW 2.6 mph /  4.2 km/h 6.9 mph /  11.1 km/h 63 % 0.00 in /  0 mm
13:26 92.3 °F /  33.5 °C 76.9 °F /  24.9 °C 29.90 in /  1012.4 hPa NW 4.3 mph /  6.9 km/h 8.1 mph /  13 km/h 61 % 0.00 in /  0 mm
13:31 92.5 °F /  33.6 °C 78.1 °F /  25.6 °C 29.90 in /  1012.4 hPa West 3.6 mph /  5.8 km/h 5.8 mph /  9.3 km/h 63 % 0.00 in /  0 mm
13:36 92.6 °F /  33.7 °C 76.7 °F /  24.8 °C 29.90 in /  1012.4 hPa WNW 4.6 mph /  7.4 km/h 8.1 mph /  13 km/h 60 % 0.00 in /  0 mm
13:41 92.6 °F /  33.7 °C 76.2 °F /  24.6 °C 29.90 in /  1012.4 hPa West 4.4 mph /  7.1 km/h 6.9 mph /  11.1 km/h 59 % 0.00 in /  0 mm
13:46 92.7 °F /  33.7 °C 76.3 °F /  24.6 °C 29.89 in /  1012.1 hPa WSW 5.3 mph /  8.5 km/h 9.2 mph /  14.8 km/h 59 % 0.00 in /  0 mm
13:51 92.6 °F /  33.7 °C 75.7 °F /  24.3 °C 29.89 in /  1012.1 hPa SW 4.8 mph /  7.7 km/h 7.0 mph /  11.3 km/h 58 % 0.00 in /  0 mm
13:56 92.6 °F /  33.7 °C 75.7 °F /  24.3 °C 29.89 in /  1012.1 hPa SW 2.0 mph /  3.2 km/h 4.6 mph /  7.4 km/h 58 % 0.00 in /  0 mm
14:01 92.5 °F /  33.6 °C 75.0 °F /  23.9 °C 29.90 in /  1012.4 hPa WNW 4.4 mph /  7.1 km/h 10.4 mph /  16.7 km/h 57 % 0.00 in /  0 mm
14:06 92.4 °F /  33.6 °C 76.0 °F /  24.4 °C 29.89 in /  1012.1 hPa West 5.8 mph /  9.3 km/h 9.2 mph /  14.8 km/h 59 % 0.00 in /  0 mm
14:11 92.0 °F /  33.3 °C 75.1 °F /  23.9 °C 29.90 in /  1012.4 hPa SW 4.7 mph /  7.6 km/h 6.9 mph /  11.1 km/h 58 % 0.00 in /  0 mm
14:16 91.7 °F /  33.2 °C 75.3 °F /  24.1 °C 29.90 in /  1012.4 hPa West 4.0 mph /  6.4 km/h 5.8 mph /  9.3 km/h 59 % 0.00 in /  0 mm
14:21 91.4 °F /  33 °C 75.6 °F /  24.2 °C 29.89 in /  1012.1 hPa West 2.9 mph /  4.7 km/h 5.8 mph /  9.3 km/h 60 % 0.00 in /  0 mm
14:26 91.5 °F /  33.1 °C 75.7 °F /  24.3 °C 29.89 in /  1012.1 hPa SSW 1.6 mph /  2.6 km/h 4.6 mph /  7.4 km/h 60 % 0.00 in /  0 mm
14:31 91.4 °F /  33 °C 75.6 °F /  24.2 °C 29.90 in /  1012.4 hPa SW 3.1 mph /  5 km/h 5.8 mph /  9.3 km/h 60 % 0.00 in /  0 mm
14:36 91.3 °F /  32.9 °C 75.5 °F /  24.2 °C 29.90 in /  1012.4 hPa WNW 3.5 mph /  5.6 km/h 5.8 mph /  9.3 km/h 60 % 0.00 in /  0 mm
14:41 91.3 °F /  32.9 °C 77.9 °F /  25.5 °C 29.89 in /  1012.1 hPa West 4.3 mph /  6.9 km/h 10.4 mph /  16.7 km/h 65 % 0.00 in /  0 mm
14:46 91.4 °F /  33 °C 76.5 °F /  24.7 °C 29.89 in /  1012.1 hPa SW 1.6 mph /  2.6 km/h 3.5 mph /  5.6 km/h 62 % 0.00 in /  0 mm
14:51 91.6 °F /  33.1 °C 76.2 °F /  24.6 °C 29.89 in /  1012.1 hPa NW 1.3 mph /  2.1 km/h 4.0 mph /  6.4 km/h 61 % 0.00 in /  0 mm
14:56 91.8 °F /  33.2 °C 76.4 °F /  24.7 °C 29.88 in /  1011.7 hPa WSW 2.2 mph /  3.5 km/h 4.0 mph /  6.4 km/h 61 % 0.00 in /  0 mm
15:01 91.9 °F /  33.3 °C 76.5 °F /  24.7 °C 29.88 in /  1011.7 hPa WNW 0.5 mph /  0.8 km/h 3.5 mph /  5.6 km/h 61 % 0.00 in /  0 mm
15:06 91.9 °F /  33.3 °C 76.5 °F /  24.7 °C 29.88 in /  1011.7 hPa SSW 2.6 mph /  4.2 km/h 5.0 mph /  8 km/h 61 % 0.00 in /  0 mm
15:11 91.9 °F /  33.3 °C 75.0 °F /  23.9 °C 29.88 in /  1011.7 hPa SW 5.9 mph /  9.5 km/h 10.4 mph /  16.7 km/h 58 % 0.00 in /  0 mm
15:16 91.9 °F /  33.3 °C 75.5 °F /  24.2 °C 29.87 in /  1011.4 hPa WNW 3.0 mph /  4.8 km/h 6.9 mph /  11.1 km/h 59 % 0.00 in /  0 mm
15:22 92.0 °F /  33.3 °C 75.6 °F /  24.2 °C 29.87 in /  1011.4 hPa WSW 3.8 mph /  6.1 km/h 5.8 mph /  9.3 km/h 59 % 0.00 in /  0 mm
15:27 91.9 °F /  33.3 °C 76.0 °F /  24.4 °C 29.88 in /  1011.7 hPa WSW 2.3 mph /  3.7 km/h 5.0 mph /  8 km/h 60 % 0.00 in /  0 mm
15:32 91.7 °F /  33.2 °C 75.3 °F /  24.1 °C 29.87 in /  1011.4 hPa WSW 0.7 mph /  1.1 km/h 3.5 mph /  5.6 km/h 59 % 0.00 in /  0 mm
15:37 91.5 °F /  33.1 °C 74.6 °F /  23.7 °C 29.88 in /  1011.7 hPa SSW 5.1 mph /  8.2 km/h 10.4 mph /  16.7 km/h 58 % 0.00 in /  0 mm
15:42 91.4 °F /  33 °C 75.6 °F /  24.2 °C 29.88 in /  1011.7 hPa WSW 1.9 mph /  3.1 km/h 6.9 mph /  11.1 km/h 60 % 0.00 in /  0 mm
15:47 91.3 °F /  32.9 °C 76.0 °F /  24.4 °C 29.89 in /  1012.1 hPa WNW 2.2 mph /  3.5 km/h 4.6 mph /  7.4 km/h 61 % 0.00 in /  0 mm
15:52 91.4 °F /  33 °C 75.6 °F /  24.2 °C 29.89 in /  1012.1 hPa WNW 3.0 mph /  4.8 km/h 5.8 mph /  9.3 km/h 60 % 0.00 in /  0 mm
15:57 91.4 °F /  33 °C 74.5 °F /  23.6 °C 29.87 in /  1011.4 hPa West 3.1 mph /  5 km/h 8.1 mph /  13 km/h 58 % 0.00 in /  0 mm
16:02 91.2 °F /  32.9 °C 75.9 °F /  24.4 °C 29.87 in /  1011.4 hPa SW 3.2 mph /  5.1 km/h 5.0 mph /  8 km/h 61 % 0.00 in /  0 mm
16:08 91.2 °F /  32.9 °C 75.9 °F /  24.4 °C 29.87 in /  1011.4 hPa WSW 3.1 mph /  5 km/h 7.0 mph /  11.3 km/h 61 % 0.00 in /  0 mm
16:13 91.2 °F /  32.9 °C 74.9 °F /  23.8 °C 29.87 in /  1011.4 hPa SW 4.2 mph /  6.8 km/h 8.1 mph /  13 km/h 59 % 0.00 in /  0 mm
16:18 91.4 °F /  33 °C 75.1 °F /  23.9 °C 29.87 in /  1011.4 hPa WNW 3.4 mph /  5.5 km/h 5.8 mph /  9.3 km/h 59 % 0.00 in /  0 mm
16:23 91.6 °F /  33.1 °C 75.2 °F /  24 °C 29.87 in /  1011.4 hPa WNW 4.3 mph /  6.9 km/h 6.0 mph /  9.7 km/h 59 % 0.00 in /  0 mm
16:28 91.7 °F /  33.2 °C 74.3 °F /  23.5 °C 29.86 in /  1011.1 hPa WSW 4.6 mph /  7.4 km/h 10.4 mph /  16.7 km/h 57 % 0.00 in /  0 mm
16:33 92.0 °F /  33.3 °C 75.1 °F /  23.9 °C 29.86 in /  1011.1 hPa SW 3.4 mph /  5.5 km/h 9.2 mph /  14.8 km/h 58 % 0.00 in /  0 mm
16:38 92.1 °F /  33.4 °C 74.1 °F /  23.4 °C 29.86 in /  1011.1 hPa West 3.6 mph /  5.8 km/h 9.2 mph /  14.8 km/h 56 % 0.00 in /  0 mm
16:43 92.2 °F /  33.4 °C 73.7 °F /  23.2 °C 29.86 in /  1011.1 hPa NW 5.0 mph /  8 km/h 8.1 mph /  13 km/h 55 % 0.00 in /  0 mm
16:48 92.0 °F /  33.3 °C 74.6 °F /  23.7 °C 29.86 in /  1011.1 hPa WSW 4.3 mph /  6.9 km/h 9.2 mph /  14.8 km/h 57 % 0.00 in /  0 mm
16:53 91.9 °F /  33.3 °C 74.5 °F /  23.6 °C 29.86 in /  1011.1 hPa WSW 4.1 mph /  6.6 km/h 9.2 mph /  14.8 km/h 57 % 0.00 in /  0 mm
16:58 91.8 °F /  33.2 °C 73.3 °F /  22.9 °C 29.86 in /  1011.1 hPa WSW 2.7 mph /  4.3 km/h 5.0 mph /  8 km/h 55 % 0.00 in /  0 mm
17:03 91.9 °F /  33.3 °C 73.4 °F /  23 °C 29.86 in /  1011.1 hPa SW 6.4 mph /  10.3 km/h 8.1 mph /  13 km/h 55 % 0.00 in /  0 mm
17:08 91.8 °F /  33.2 °C 72.8 °F /  22.7 °C 29.87 in /  1011.4 hPa WSW 3.8 mph /  6.1 km/h 9.2 mph /  14.8 km/h 54 % 0.00 in /  0 mm
17:13 91.5 °F /  33.1 °C 73.1 °F /  22.8 °C 29.86 in /  1011.1 hPa WSW 4.1 mph /  6.6 km/h 5.8 mph /  9.3 km/h 55 % 0.00 in /  0 mm
17:18 91.3 °F /  32.9 °C 73.4 °F /  23 °C 29.86 in /  1011.1 hPa West 2.0 mph /  3.2 km/h 9.2 mph /  14.8 km/h 56 % 0.00 in /  0 mm
17:23 91.1 °F /  32.8 °C 73.2 °F /  22.9 °C 29.87 in /  1011.4 hPa WNW 3.8 mph /  6.1 km/h 7.0 mph /  11.3 km/h 56 % 0.00 in /  0 mm
17:28 90.8 °F /  32.7 °C 73.5 °F /  23.1 °C 29.87 in /  1011.4 hPa West 3.4 mph /  5.5 km/h 8.1 mph /  13 km/h 57 % 0.00 in /  0 mm
17:33 90.7 °F /  32.6 °C 73.4 °F /  23 °C 29.87 in /  1011.4 hPa WSW 4.1 mph /  6.6 km/h 6.9 mph /  11.1 km/h 57 % 0.00 in /  0 mm
17:38 90.5 °F /  32.5 °C 73.2 °F /  22.9 °C 29.87 in /  1011.4 hPa WSW 4.6 mph /  7.4 km/h 10.4 mph /  16.7 km/h 57 % 0.00 in /  0 mm
17:44 90.3 °F /  32.4 °C 73.5 °F /  23.1 °C 29.87 in /  1011.4 hPa SSW 3.4 mph /  5.5 km/h 6.9 mph /  11.1 km/h 58 % 0.00 in /  0 mm
17:49 90.1 °F /  32.3 °C 72.8 °F /  22.7 °C 29.87 in /  1011.4 hPa West 2.7 mph /  4.3 km/h 5.8 mph /  9.3 km/h 57 % 0.00 in /  0 mm
17:54 89.9 °F /  32.2 °C 73.7 °F /  23.2 °C 29.87 in /  1011.4 hPa SW 1.8 mph /  2.9 km/h 4.6 mph /  7.4 km/h 59 % 0.00 in /  0 mm
17:59 89.7 °F /  32.1 °C 74.0 °F /  23.3 °C 29.87 in /  1011.4 hPa SW 1.0 mph /  1.6 km/h 2.3 mph /  3.7 km/h 60 % 0.00 in /  0 mm
18:04 89.5 °F /  31.9 °C 73.8 °F /  23.2 °C 29.88 in /  1011.7 hPa WSW 0.3 mph /  0.5 km/h 3.5 mph /  5.6 km/h 60 % 0.00 in /  0 mm
18:09 89.3 °F /  31.8 °C 73.6 °F /  23.1 °C 29.87 in /  1011.4 hPa WSW 1.5 mph /  2.4 km/h 5.0 mph /  8 km/h 60 % 0.00 in /  0 mm
18:14 89.2 °F /  31.8 °C 74.5 °F /  23.6 °C 29.88 in /  1011.7 hPa West 2.9 mph /  4.7 km/h 4.6 mph /  7.4 km/h 62 % 0.00 in /  0 mm
18:19 89.0 °F /  31.7 °C 73.8 °F /  23.2 °C 29.88 in /  1011.7 hPa WNW 0.9 mph /  1.4 km/h 2.3 mph /  3.7 km/h 61 % 0.00 in /  0 mm
18:24 88.8 °F /  31.6 °C 73.6 °F /  23.1 °C 29.87 in /  1011.4 hPa SSW 4.0 mph /  6.4 km/h 5.0 mph /  8 km/h 61 % 0.00 in /  0 mm
18:29 88.6 °F /  31.4 °C 73.4 °F /  23 °C 29.88 in /  1011.7 hPa WSW 2.3 mph /  3.7 km/h 4.0 mph /  6.4 km/h 61 % 0.00 in /  0 mm
18:34 88.3 °F /  31.3 °C 73.6 °F /  23.1 °C 29.88 in /  1011.7 hPa West 4.0 mph /  6.4 km/h 6.9 mph /  11.1 km/h 62 % 0.00 in /  0 mm
18:39 88.0 °F /  31.1 °C 73.3 °F /  22.9 °C 29.87 in /  1011.4 hPa SW 2.8 mph /  4.5 km/h 5.8 mph /  9.3 km/h 62 % 0.00 in /  0 mm
18:44 87.6 °F /  30.9 °C 73.0 °F /  22.8 °C 29.88 in /  1011.7 hPa SW 3.6 mph /  5.8 km/h 7.0 mph /  11.3 km/h 62 % 0.00 in /  0 mm
18:49 87.3 °F /  30.7 °C 73.6 °F /  23.1 °C 29.88 in /  1011.7 hPa WSW 3.8 mph /  6.1 km/h 6.0 mph /  9.7 km/h 64 % 0.00 in /  0 mm
18:54 87.0 °F /  30.6 °C 72.9 °F /  22.7 °C 29.88 in /  1011.7 hPa SW 1.5 mph /  2.4 km/h 3.5 mph /  5.6 km/h 63 % 0.00 in /  0 mm
18:59 86.9 °F /  30.5 °C 73.3 °F /  22.9 °C 29.88 in /  1011.7 hPa WSW 1.6 mph /  2.6 km/h 3.5 mph /  5.6 km/h 64 % 0.00 in /  0 mm
19:04 86.7 °F /  30.4 °C 73.1 °F /  22.8 °C 29.89 in /  1012.1 hPa SW 3.6 mph /  5.8 km/h 15.0 mph /  24.1 km/h 64 % 0.00 in /  0 mm
19:09 86.3 °F /  30.2 °C 73.1 °F /  22.8 °C 29.89 in /  1012.1 hPa South 5.3 mph /  8.5 km/h 12.7 mph /  20.4 km/h 65 % 0.00 in /  0 mm
19:14 85.8 °F /  29.9 °C 73.1 °F /  22.8 °C 29.89 in /  1012.1 hPa SW 7.0 mph /  11.3 km/h 9.2 mph /  14.8 km/h 66 % 0.00 in /  0 mm
19:19 85.4 °F /  29.7 °C 73.2 °F /  22.9 °C 29.89 in /  1012.1 hPa SW 3.9 mph /  6.3 km/h 11.5 mph /  18.5 km/h 67 % 0.00 in /  0 mm
19:25 85.0 °F /  29.4 °C 73.3 °F /  22.9 °C 29.89 in /  1012.1 hPa West 4.2 mph /  6.8 km/h 10.4 mph /  16.7 km/h 68 % 0.00 in /  0 mm
19:30 84.5 °F /  29.2 °C 72.8 °F /  22.7 °C 29.90 in /  1012.4 hPa West 3.7 mph /  6 km/h 10.4 mph /  16.7 km/h 68 % 0.00 in /  0 mm
19:35 84.1 °F /  28.9 °C 72.8 °F /  22.7 °C 29.90 in /  1012.4 hPa WSW 4.5 mph /  7.2 km/h 10.4 mph /  16.7 km/h 69 % 0.00 in /  0 mm
19:40 83.8 °F /  28.8 °C 73.0 °F /  22.8 °C 29.90 in /  1012.4 hPa WSW 2.9 mph /  4.7 km/h 8.0 mph /  12.9 km/h 70 % 0.00 in /  0 mm
19:45 83.5 °F /  28.6 °C 73.1 °F /  22.8 °C 29.90 in /  1012.4 hPa West 3.0 mph /  4.8 km/h 5.8 mph /  9.3 km/h 71 % 0.00 in /  0 mm
19:50 83.3 °F /  28.5 °C 72.9 °F /  22.7 °C 29.90 in /  1012.4 hPa WSW 1.9 mph /  3.1 km/h 9.2 mph /  14.8 km/h 71 % 0.00 in /  0 mm
19:55 83.1 °F /  28.4 °C 73.1 °F /  22.8 °C 29.90 in /  1012.4 hPa West 2.9 mph /  4.7 km/h 5.8 mph /  9.3 km/h 72 % 0.00 in /  0 mm
20:00 82.9 °F /  28.3 °C 72.9 °F /  22.7 °C 29.90 in /  1012.4 hPa WNW 1.9 mph /  3.1 km/h 4.6 mph /  7.4 km/h 72 % 0.00 in /  0 mm
20:05 82.8 °F /  28.2 °C 73.3 °F /  22.9 °C 29.91 in /  1012.8 hPa WNW 3.8 mph /  6.1 km/h 5.8 mph /  9.3 km/h 73 % 0.00 in /  0 mm
20:10 82.7 °F /  28.2 °C 73.6 °F /  23.1 °C 29.90 in /  1012.4 hPa SSW 0.6 mph /  1 km/h 3.5 mph /  5.6 km/h 74 % 0.00 in /  0 mm
20:15 82.5 °F /  28.1 °C 73.4 °F /  23 °C 29.91 in /  1012.8 hPa SW 1.9 mph /  3.1 km/h 3.5 mph /  5.6 km/h 74 % 0.00 in /  0 mm
20:20 82.4 °F /  28 °C 73.3 °F /  22.9 °C 29.91 in /  1012.8 hPa SW 0.7 mph /  1.1 km/h 3.5 mph /  5.6 km/h 74 % 0.00 in /  0 mm
20:25 82.3 °F /  27.9 °C 73.6 °F /  23.1 °C 29.91 in /  1012.8 hPa West 0.5 mph /  0.8 km/h 1.2 mph /  1.9 km/h 75 % 0.00 in /  0 mm
20:30 82.1 °F /  27.8 °C 73.4 °F /  23 °C 29.91 in /  1012.8 hPa West 0.4 mph /  0.6 km/h 2.3 mph /  3.7 km/h 75 % 0.00 in /  0 mm
20:35 82.0 °F /  27.8 °C 72.9 °F /  22.7 °C 29.91 in /  1012.8 hPa NW 0.2 mph /  0.3 km/h 1.2 mph /  1.9 km/h 74 % 0.00 in /  0 mm
20:40 81.9 °F /  27.7 °C 73.2 °F /  22.9 °C 29.91 in /  1012.8 hPa Calm   1.2 mph /  1.9 km/h 75 % 0.00 in /  0 mm
20:45 81.8 °F /  27.7 °C 73.1 °F /  22.8 °C 29.91 in /  1012.8 hPa Calm   1.2 mph /  1.9 km/h 75 % 0.00 in /  0 mm
20:50 81.7 °F /  27.6 °C 73.4 °F /  23 °C 29.92 in /  1013.1 hPa North 3.9 mph /  6.3 km/h 5.8 mph /  9.3 km/h 76 % 0.00 in /  0 mm
20:55 81.4 °F /  27.4 °C 73.1 °F /  22.8 °C 29.92 in /  1013.1 hPa North 2.2 mph /  3.5 km/h 5.0 mph /  8 km/h 76 % 0.00 in /  0 mm
21:00 81.1 °F /  27.3 °C 72.8 °F /  22.7 °C 29.92 in /  1013.1 hPa NNW 1.1 mph /  1.8 km/h 3.0 mph /  4.8 km/h 76 % 0.00 in /  0 mm
21:05 80.8 °F /  27.1 °C 72.9 °F /  22.7 °C 29.92 in /  1013.1 hPa West 1.5 mph /  2.4 km/h 5.8 mph /  9.3 km/h 77 % 0.00 in /  0 mm
21:10 80.7 °F /  27.1 °C 72.8 °F /  22.7 °C 29.93 in /  1013.4 hPa West 0.2 mph /  0.3 km/h 1.2 mph /  1.9 km/h 77 % 0.00 in /  0 mm
21:15 80.5 °F /  26.9 °C 72.6 °F /  22.6 °C 29.93 in /  1013.4 hPa West 1.3 mph /  2.1 km/h 3.5 mph /  5.6 km/h 77 % 0.00 in /  0 mm
21:20 80.4 °F /  26.9 °C 72.9 °F /  22.7 °C 29.93 in /  1013.4 hPa West 0.3 mph /  0.5 km/h 2.3 mph /  3.7 km/h 78 % 0.00 in /  0 mm
21:25 80.2 °F /  26.8 °C 72.7 °F /  22.6 °C 29.94 in /  1013.8 hPa NNW 0.8 mph /  1.3 km/h 2.3 mph /  3.7 km/h 78 % 0.00 in /  0 mm
21:29 80.0 °F /  26.7 °C 72.5 °F /  22.5 °C 29.94 in /  1013.8 hPa NNW 0.2 mph /  0.3 km/h 1.2 mph /  1.9 km/h 78 % 0.00 in /  0 mm
21:34 79.8 °F /  26.6 °C 72.3 °F /  22.4 °C 29.95 in /  1014.1 hPa Calm     78 % 0.00 in /  0 mm
21:39 79.7 °F /  26.5 °C 72.6 °F /  22.6 °C 29.95 in /  1014.1 hPa Calm     79 % 0.00 in /  0 mm
21:44 79.6 °F /  26.4 °C 72.5 °F /  22.5 °C 29.95 in /  1014.1 hPa Calm   1.2 mph /  1.9 km/h 79 % 0.00 in /  0 mm
21:49 79.4 °F /  26.3 °C 73.1 °F /  22.8 °C 29.95 in /  1014.1 hPa Calm     81 % 0.01 in /  0.25 mm
21:54 79.3 °F /  26.3 °C 73.3 °F /  22.9 °C 29.95 in /  1014.1 hPa Calm     82 % 0.01 in /  0.25 mm
21:59 79.2 °F /  26.2 °C 73.2 °F /  22.9 °C 29.95 in /  1014.1 hPa Calm   1.2 mph /  1.9 km/h 82 % 0.01 in /  0.25 mm
22:04 79.0 °F /  26.1 °C 73.4 °F /  23 °C 29.95 in /  1014.1 hPa Calm     83 % 0.01 in /  0.25 mm
22:09 78.8 °F /  26 °C 73.2 °F /  22.9 °C 29.96 in /  1014.4 hPa Calm     83 % 0.01 in /  0.25 mm
22:14 78.6 °F /  25.9 °C 73.4 °F /  23 °C 29.95 in /  1014.1 hPa Calm     84 % 0.01 in /  0.25 mm
22:19 78.3 °F /  25.7 °C 73.4 °F /  23 °C 29.94 in /  1013.8 hPa Calm     85 % 0.01 in /  0.25 mm
22:24 78.1 °F /  25.6 °C 73.2 °F /  22.9 °C 29.94 in /  1013.8 hPa Calm   1.0 mph /  1.6 km/h 85 % 0.01 in /  0.25 mm
22:29 77.8 °F /  25.4 °C 72.9 °F /  22.7 °C 29.94 in /  1013.8 hPa Calm     85 % 0.01 in /  0.25 mm
22:34 77.6 °F /  25.3 °C 73.1 °F /  22.8 °C 29.94 in /  1013.8 hPa Calm     86 % 0.01 in /  0.25 mm
22:39 77.3 °F /  25.2 °C 73.1 °F /  22.8 °C 29.94 in /  1013.8 hPa Calm     87 % 0.01 in /  0.25 mm
22:44 77.2 °F /  25.1 °C 73.0 °F /  22.8 °C 29.94 in /  1013.8 hPa Calm     87 % 0.01 in /  0.25 mm
22:49 77.1 °F /  25.1 °C 72.9 °F /  22.7 °C 29.94 in /  1013.8 hPa Calm     87 % 0.00 in /  0 mm
22:54 76.9 °F /  24.9 °C 73.1 °F /  22.8 °C 29.94 in /  1013.8 hPa Calm     88 % 0.00 in /  0 mm
22:59 76.7 °F /  24.8 °C 72.9 °F /  22.7 °C 29.94 in /  1013.8 hPa Calm     88 % 0.00 in /  0 mm
23:05 76.6 °F /  24.8 °C 73.1 °F /  22.8 °C 29.94 in /  1013.8 hPa Calm     89 % 0.00 in /  0 mm
23:10 76.4 °F /  24.7 °C 72.9 °F /  22.7 °C 29.94 in /  1013.8 hPa Calm     89 % 0.00 in /  0 mm
23:15 76.3 °F /  24.6 °C 73.1 °F /  22.8 °C 29.94 in /  1013.8 hPa Calm     90 % 0.00 in /  0 mm
23:20 76.1 °F /  24.5 °C 73.0 °F /  22.8 °C 29.94 in /  1013.8 hPa Calm     90 % 0.00 in /  0 mm
23:25 76.0 °F /  24.4 °C 72.5 °F /  22.5 °C 29.94 in /  1013.8 hPa Calm   1.2 mph /  1.9 km/h 89 % 0.00 in /  0 mm
23:30 75.9 °F /  24.4 °C 72.4 °F /  22.4 °C 29.94 in /  1013.8 hPa Calm     89 % 0.00 in /  0 mm
23:35 75.8 °F /  24.3 °C 72.7 °F /  22.6 °C 29.94 in /  1013.8 hPa NW 0.3 mph /  0.5 km/h 1.2 mph /  1.9 km/h 90 % 0.00 in /  0 mm
23:40 75.6 °F /  24.2 °C 72.5 °F /  22.5 °C 29.94 in /  1013.8 hPa Calm   1.2 mph /  1.9 km/h 90 % 0.00 in /  0 mm
23:45 75.5 °F /  24.2 °C 72.4 °F /  22.4 °C 29.94 in /  1013.8 hPa Calm     90 % 0.00 in /  0 mm
23:50 75.5 °F /  24.2 °C 72.4 °F /  22.4 °C 29.94 in /  1013.8 hPa NW 0.2 mph /  0.3 km/h 1.2 mph /  1.9 km/h 90 % 0.00 in /  0 mm
23:55 75.4 °F /  24.1 °C 72.3 °F /  22.4 °C 29.94 in /  1013.8 hPa WSW 0.1 mph /  0.2 km/h 2.3 mph /  3.7 km/h 90 % 0.00 in /  0 mm
Crab Meadow Weather
Compliments of Weather Underground - 3 mb

Script developed by  Jim McMurry - jmcmurry@mwt.net Adapted for the template by  Wim van der Kuil - Leuven-Template.eu

Astronomy: Pluto is not a planet, because it does not have a fixed orbit and it's orbit comes in between the orbit of another planet (Neptune).